Main page
METAR-TAF:

METAR-TAF

Airports :

Orange-Caritat Air Base

Orange, France

latitude: 44-08N, longitude: 004-50E, elevation: 60 m

Current weather observation

The report was made 18 minutes ago, at 19:00 UTC
Wind 3 kt from the West
Temperature 17°C
Humidity 59%
Pressure 1021 hPa
Visibility 10 km or more
no clouds below 1500 m and no cumulonimbus

METAR: LFMO 181900Z AUTO 28003KT CAVOK 17/09 Q1021 BECMG 22015KT

Time: 21:18 (19:18 UTC)

Forecast

The report was made 5 hours and 18 minutes ago, at 14:00 UTC
Forecast valid from 18 at 15 UTC to 19 at 15 UTC
Wind 15 kt from the Southwest
Visibility 10 km or more
no clouds below 1500 m and no cumulonimbus
Becoming
from 18 at 21 UTC to 18 at 23 UTC
Wind 2 kt from variable directions
Becoming
from 19 at 11 UTC to 19 at 13 UTC
Wind 12 kt from the West/Southwest

TAF: LFMO 181400Z 1815/1915 22015KT CAVOK BECMG 1821/1823 VRB02KT BECMG 1911/1913 24012KT

Weather observations and forecasts of more than 4000 airports (METAR and TAF reports).

The available stations are represented by yellow and red dots on the map.

Hover mouse over dot to see the name of the station.

Then click to see weather observations and forecasts.

To change the map : click on the green buttons with a black cross to zoom in, on the green button with a dash to zoom out, or on the green arrows for adjacent maps.


METAR-TAF: